This demonstration page uses our WeatherBlox Daily Observations layout. Learn more.

Left ArrowRight Arrow

41.86663, -103.66717

Hourly Observations for July 24, 2020

Temp ( °F °C ) Dew Point ( °F °C ) Humidity (%) Winds ( mph kmh ) Pressure ( in mb ) Visibility ( mi km ) Precip ( " mm )
12:53 am 00:53 Clear 75 23.9 62 16.7 64 64 SE 9 15 29.8 1009 10 16.0934 0 0
1:53 am 01:53 Clear 72 22.2 62 16.7 71 71 ESE 7 11 29.8 1009 10 16.0934 0 0
2:53 am 02:53 Clear 72 22.2 62 16.7 71 71 ESE 5 7 29.8 1009 10 16.0934 0 0
3:53 am 03:53 Clear 72 22.2 60 15.6 66 66 SSE 10 17 29.8 1009 10 16.0934 0 0
4:53 am 04:53 Clear 69 20.6 62 16.7 78 78 ENE 3 6 29.79 1009 10 16.0934 0 0
5:53 am 05:53 Sunny 69 20.6 61 16.1 76 76 ENE 6 9 29.79 1009 10 16.0934 0 0
6:53 am 06:53 Sunny 70 21.1 60 15.6 71 71 undefined N/A 29.8 1009 10 16.0934 0 0
7:53 am 07:53 Sunny 70 21.1 61 16.1 73 73 ESE 9 15 29.81 1009 10 16.0934 0 0
8:53 am 08:53 Sunny 73 22.8 62 16.7 69 69 E 9 15 29.82 1010 10 16.0934 0 0
9:53 am 09:53 Mostly Sunny 77 25 63 17.2 62 62 VRB 5 7 29.83 1010 10 16.0934 0 0
10:53 am 10:53 Mostly Sunny 83 28.3 62 16.7 49 49 NNW 9 15 29.82 1010 10 16.0934 0 0
11:53 am 11:53 Sunny 87 30.6 59 15 39 39 WNW 16 26 29.8 1009 10 16.0934 0 0
12:53 pm 12:53 Sunny 89 31.7 59 15 36 36 WNW 16 26 29.8 1009 10 16.0934 0 0
1:53 pm 13:53 Sunny 92 33.3 55 12.8 29 29 NW 12 19 29.8 1009 10 16.0934 0 0
2:53 pm 14:53 Sunny 94 34.4 53 11.7 25 25 VRB 5 7 29.79 1009 10 16.0934 0 0
3:53 pm 15:53 Sunny 92 33.3 53 11.7 27 27 WNW 20 31 29.79 1009 10 16.0934 0 0
4:53 pm 16:53 Sunny 93 33.9 52 11.1 25 25 NW 13 20 29.79 1009 10 16.0934 0 0
5:53 pm 17:53 Sunny 91 32.8 50 10 25 25 VRB 5 7 29.78 1008 10 16.0934 0 0
6:53 pm 18:53 Sunny 90 32.2 51 10.6 26 26 W 3 6 29.77 1008 10 16.0934 0 0
7:53 pm 19:53 Sunny 87 30.6 56 13.3 35 35 Calm 29.76 1008 10 16.0934 0 0
8:53 pm 20:53 Clear 78 25.6 60 15.6 54 54 N 3 6 29.78 1009 10 16.0934 0 0
9:53 pm 21:53 Clear 77 25 58 14.4 52 52 ESE 7 11 29.81 1010 10 16.0934 0 0
10:53 pm 22:53 Clear 73 22.8 59 15 62 62 ENE 5 7 29.83 1010 10 16.0934 0 0
11:53 pm 23:53 Clear 72 22.2 59 15 64 64 SE 3 6 29.83 1010 10 16.0934 0 0

Powered by AerisWeather